Time;durP1;ratioP1;P1;durP2;ratioP2;P2;SDS_P1;SDS_P2;PMS_P1;PMS_P2;Temp;Humidity;BMP_temperature;BMP_pressure;BME280_temperature;BME280_humidity;BME280_pressure;Samples;Min_cycle;Max_cycle;Signal;HPM_P1;HPM_P2
2022/12/16 00:01:09;;;;;;;6.67;3.20;;;1.60;98.00;;;;;;4994875;28;20488;-67
2022/12/16 00:03:36;;;;;;;5.47;3.67;;;1.50;98.00;;;;;;4994931;28;20466;-67
2022/12/16 00:06:04;;;;;;;8.30;3.60;;;1.60;98.00;;;;;;4995094;28;20470;-67
2022/12/16 00:08:33;;;;;;;4.07;3.40;;;1.40;98.00;;;;;;4977712;28;20460;-67
2022/12/16 00:11:01;;;;;;;3.40;2.43;;;1.30;98.00;;;;;;4977661;28;20557;-67
2022/12/16 00:13:31;;;;;;;4.13;3.13;;;1.30;98.00;;;;;;4994592;28;20467;-66
2022/12/16 00:15:59;;;;;;;6.10;3.10;;;1.40;98.00;;;;;;4994689;28;20954;-67
2022/12/16 00:18:28;;;;;;;6.00;3.97;;;1.40;98.00;;;;;;4994440;28;20471;-67
2022/12/16 00:20:55;;;;;;;4.10;3.43;;;1.30;98.00;;;;;;4994565;28;20492;-66
2022/12/16 00:23:23;;;;;;;4.10;3.23;;;1.20;98.00;;;;;;4994477;28;20518;-66
2022/12/16 00:25:50;;;;;;;5.37;2.47;;;1.10;98.00;;;;;;4994353;28;20460;-66
2022/12/16 00:28:21;;;;;;;4.30;3.10;;;1.20;98.00;;;;;;4994153;28;20465;-67
2022/12/16 00:30:50;;;;;;;6.60;3.10;;;1.20;98.00;;;;;;4994454;28;20919;-67
2022/12/16 00:33:19;;;;;;;7.37;3.13;;;1.30;98.00;;;;;;4994117;28;20463;-66
2022/12/16 00:35:46;;;;;;;7.17;3.43;;;1.40;98.00;;;;;;4994255;28;20464;-67
2022/12/16 00:38:14;;;;;;;6.23;3.30;;;1.40;98.00;;;;;;4994212;28;21033;-66
2022/12/16 00:40:41;;;;;;;3.77;2.87;;;1.40;98.00;;;;;;4994407;28;20503;-67
2022/12/16 00:43:09;;;;;;;5.30;3.47;;;1.30;98.00;;;;;;4994085;28;20503;-67
2022/12/16 00:45:36;;;;;;;8.50;2.83;;;1.40;98.00;;;;;;4994138;28;20474;-66
2022/12/16 00:48:05;;;;;;;9.80;3.87;;;1.50;98.00;;;;;;4976935;28;20535;-66
2022/12/16 00:50:32;;;;;;;9.20;2.90;;;1.40;98.00;;;;;;4993937;28;20456;-67
2022/12/16 00:53:00;;;;;;;6.80;4.90;;;1.40;98.00;;;;;;4993971;28;20456;-67
2022/12/16 00:55:27;;;;;;;3.50;2.57;;;1.40;98.00;;;;;;4993785;28;20462;-67
2022/12/16 00:57:57;;;;;;;8.17;3.90;;;1.40;98.00;;;;;;4993793;28;20455;-67
2022/12/16 01:00:25;;;;;;;4.17;3.03;;;1.40;98.00;;;;;;4977340;28;20495;-67
2022/12/16 01:02:53;;;;;;;6.73;2.60;;;1.40;98.00;;;;;;4993846;28;20570;-67
2022/12/16 01:05:25;;;;;;;4.37;3.17;;;1.40;98.00;;;;;;4994027;28;20463;-67
2022/12/16 01:07:52;;;;;;;4.17;3.37;;;1.40;98.00;;;;;;4993795;28;20513;-66
2022/12/16 01:10:20;;;;;;;3.30;2.57;;;1.30;98.00;;;;;;4993654;28;20459;-67
2022/12/16 01:12:48;;;;;;;7.07;3.83;;;1.30;98.00;;;;;;4993398;28;20463;-66
2022/12/16 01:15:16;;;;;;;10.97;3.80;;;1.30;98.00;;;;;;4993558;28;20539;-67
2022/12/16 01:17:44;;;;;;;8.03;3.67;;;1.30;98.00;;;;;;4976501;28;20555;-66
2022/12/16 01:20:12;;;;;;;11.20;3.67;;;1.30;98.00;;;;;;4993471;28;20470;-67
2022/12/16 01:22:41;;;;;;;6.53;3.73;;;1.30;98.00;;;;;;4993191;28;20510;-66
2022/12/16 01:25:09;;;;;;;6.70;3.67;;;1.30;98.00;;;;;;4975990;28;20464;-67
2022/12/16 01:27:36;;;;;;;6.60;3.30;;;1.30;98.00;;;;;;4993034;28;20962;-66
2022/12/16 01:30:04;;;;;;;6.90;3.13;;;1.20;98.00;;;;;;4993276;28;20463;-67
2022/12/16 01:32:31;;;;;;;5.73;3.57;;;1.30;98.00;;;;;;4993203;28;20490;-67
2022/12/16 01:34:59;;;;;;;4.43;3.00;;;1.20;98.00;;;;;;4993095;28;20506;-66
2022/12/16 01:37:26;;;;;;;8.70;4.20;;;1.10;98.00;;;;;;4993042;28;20457;-67
2022/12/16 01:39:55;;;;;;;4.70;3.00;;;1.00;98.00;;;;;;4993126;28;20453;-67
2022/12/16 01:42:27;;;;;;;7.80;3.43;;;1.10;98.00;;;;;;4975810;28;20566;-66
2022/12/16 01:44:54;;;;;;;2.87;2.60;;;1.00;98.00;;;;;;4992960;28;20518;-66
2022/12/16 01:47:26;;;;;;;12.93;3.37;;;0.90;98.00;;;;;;4992973;28;20474;-66
2022/12/16 01:49:56;;;;;;;6.07;4.00;;;1.00;98.00;;;;;;4992843;28;20455;-67
2022/12/16 01:52:27;;;;;;;6.03;3.00;;;1.00;98.00;;;;;;4992774;28;20467;-66
2022/12/16 01:55:01;;;;;;;5.93;3.03;;;1.10;98.00;;;;;;4992984;28;20496;-67
2022/12/16 01:57:33;;;;;;;3.73;2.73;;;1.10;98.00;;;;;;4992980;28;20459;-67
2022/12/16 02:00:02;;;;;;;3.00;2.40;;;1.20;98.00;;;;;;4992777;28;20465;-67
2022/12/16 02:02:29;;;;;;;8.30;3.80;;;1.20;98.00;;;;;;4992497;28;20499;-67
2022/12/16 02:07:41;;;;;;;4.70;2.07;;;1.20;98.00;;;;;;4992892;28;20637;-66
2022/12/16 02:10:10;;;;;;;5.57;3.83;;;1.30;98.00;;;;;;4992217;28;20876;-66
2022/12/16 02:12:48;;;;;;;9.63;3.90;;;1.40;98.00;;;;;;4992419;28;20506;-67
2022/12/16 02:15:25;;;;;;;8.20;2.77;;;1.40;98.00;;;;;;4992703;28;20468;-67
2022/12/16 02:17:59;;;;;;;4.03;3.23;;;1.40;98.00;;;;;;4992480;28;20475;-67
2022/12/16 02:21:05;;;;;;;3.97;3.20;;;1.40;98.00;;;;;;4992753;28;20495;-66
2022/12/16 02:24:09;;;;;;;5.90;3.17;;;1.30;98.00;;;;;;4981904;28;20459;-66
2022/12/16 02:27:16;;;;;;;5.63;3.50;;;1.30;98.00;;;;;;4990386;28;20511;-67
2022/12/16 02:30:04;;;;;;;5.07;3.30;;;1.30;98.00;;;;;;4992966;28;20451;-67
2022/12/16 02:32:43;;;;;;;3.00;2.47;;;1.20;98.00;;;;;;4976292;28;20859;-66
2022/12/16 02:35:15;;;;;;;5.27;3.30;;;1.10;98.00;;;;;;4993439;28;20463;-67
2022/12/16 02:37:47;;;;;;;4.60;2.97;;;1.10;98.00;;;;;;4992579;28;20464;-66
2022/12/16 02:40:22;;;;;;;6.63;3.83;;;1.10;98.00;;;;;;4992119;28;20955;-67
2022/12/16 02:42:54;;;;;;;2.90;2.23;;;1.20;98.00;;;;;;4991885;28;20536;-66
2022/12/16 02:45:25;;;;;;;3.83;3.20;;;1.10;98.00;;;;;;4992159;28;20459;-67
2022/12/16 02:47:55;;;;;;;5.27;3.30;;;1.00;98.00;;;;;;4992195;28;20448;-67
2022/12/16 02:50:28;;;;;;;5.20;3.60;;;1.10;98.00;;;;;;4992102;28;20548;-66
2022/12/16 02:52:57;;;;;;;6.27;3.07;;;1.00;98.00;;;;;;4992334;28;20471;-67
2022/12/16 02:55:31;;;;;;;7.50;3.53;;;1.00;98.00;;;;;;4991995;28;20467;-66
2022/12/16 02:58:16;;;;;;;8.80;3.77;;;0.90;98.00;;;;;;4991969;28;20468;-67
2022/12/16 03:00:52;;;;;;;6.57;4.33;;;1.00;98.00;;;;;;4992006;28;20883;-67
2022/12/16 03:03:26;;;;;;;2.60;2.40;;;1.00;98.00;;;;;;4991760;28;20497;-66
2022/12/16 03:05:55;;;;;;;6.33;2.40;;;1.00;98.00;;;;;;4991945;28;20491;-67
2022/12/16 03:08:28;;;;;;;6.00;3.43;;;1.00;98.00;;;;;;4991736;28;20464;-67
2022/12/16 03:11:00;;;;;;;5.73;3.73;;;1.20;98.00;;;;;;4991874;28;20953;-66
2022/12/16 03:13:33;;;;;;;4.13;3.43;;;1.20;98.00;;;;;;4991621;28;20496;-67
2022/12/16 03:16:01;;;;;;;3.30;3.10;;;1.20;98.00;;;;;;4974401;28;20464;-67
2022/12/16 03:18:31;;;;;;;13.53;2.90;;;1.20;98.00;;;;;;4974325;28;20961;-66
2022/12/16 03:21:02;;;;;;;4.20;2.90;;;1.20;98.00;;;;;;4991914;28;20525;-67
2022/12/16 03:23:33;;;;;;;8.57;4.33;;;1.20;98.00;;;;;;4995461;28;20487;-66
2022/12/16 03:26:06;;;;;;;4.60;3.20;;;1.20;98.00;;;;;;4995707;28;20464;-66
2022/12/16 03:28:44;;;;;;;6.20;2.63;;;1.20;98.00;;;;;;4995552;28;20464;-66
2022/12/16 03:31:23;;;;;;;7.70;4.50;;;1.20;98.00;;;;;;4995527;28;20558;-67
2022/12/16 03:33:57;;;;;;;6.13;3.10;;;0.90;98.00;;;;;;4995331;28;20988;-67
2022/12/16 03:36:29;;;;;;;3.47;2.93;;;0.80;98.00;;;;;;4995342;28;20455;-67
2022/12/16 03:38:58;;;;;;;3.33;2.80;;;0.70;98.00;;;;;;4995352;28;20459;-66
2022/12/16 03:41:26;;;;;;;5.30;3.73;;;0.60;98.00;;;;;;4995230;28;20976;-66
2022/12/16 03:43:54;;;;;;;5.47;3.40;;;0.50;98.00;;;;;;4978039;28;20487;-67
2022/12/16 03:46:21;;;;;;;8.10;4.57;;;0.60;98.00;;;;;;4995442;28;20451;-66
2022/12/16 03:48:50;;;;;;;5.80;3.47;;;0.40;98.00;;;;;;4995313;28;20544;-66
2022/12/16 03:51:19;;;;;;;4.03;3.07;;;0.30;98.00;;;;;;4995201;28;20470;-66
2022/12/16 03:53:47;;;;;;;5.33;2.97;;;0.20;98.00;;;;;;4994928;28;20460;-66
2022/12/16 03:56:15;;;;;;;3.30;3.07;;;0.20;98.00;;;;;;4995082;28;20855;-66
2022/12/16 03:58:45;;;;;;;5.00;2.97;;;0.20;98.00;;;;;;4994967;28;20830;-67
2022/12/16 04:01:13;;;;;;;5.00;2.43;;;0.20;98.00;;;;;;4978122;28;20470;-66
2022/12/16 04:03:40;;;;;;;6.27;4.43;;;0.10;98.00;;;;;;4994605;28;20497;-66
2022/12/16 04:06:08;;;;;;;4.77;3.37;;;0.20;98.00;;;;;;4994802;28;20459;-66
2022/12/16 04:08:36;;;;;;;4.80;3.00;;;0.40;98.00;;;;;;4994584;28;20463;-66
2022/12/16 04:25:06;;;;;;;9.10;3.50;;;0.40;98.00;;;;;;4994650;28;20446;-66
2022/12/16 04:27:33;;;;;;;2.77;2.27;;;0.40;98.00;;;;;;4994411;28;20462;-66
